createdAt,value
2023-02-27T00:00:39.331Z,1.00
2023-02-27T00:03:06.787Z,1.17
2023-02-27T00:05:34.121Z,1.27
2023-02-27T00:08:01.437Z,1.00
2023-02-27T00:10:30.142Z,1.00
2023-02-27T00:12:57.423Z,0.95
2023-02-27T00:15:24.719Z,1.00
2023-02-27T00:17:52.240Z,0.85
2023-02-27T00:20:20.391Z,0.70
2023-02-27T00:22:47.724Z,0.70
2023-02-27T00:25:15.231Z,0.70
2023-02-27T00:27:43.972Z,0.85
2023-02-27T00:30:12.541Z,0.77
2023-02-27T00:32:40.160Z,0.60
2023-02-27T00:35:08.582Z,0.85
2023-02-27T00:37:35.982Z,0.55
2023-02-27T00:40:05.021Z,1.05
2023-02-27T00:42:32.326Z,0.70
2023-02-27T00:45:00.973Z,0.80
2023-02-27T00:47:28.371Z,0.90
2023-02-27T00:49:55.763Z,0.70
2023-02-27T00:52:23.199Z,0.80
2023-02-27T00:54:50.524Z,0.80
2023-02-27T00:57:17.895Z,0.80
2023-02-27T00:59:45.279Z,0.68
2023-02-27T01:02:13.964Z,0.90
2023-02-27T01:04:41.339Z,0.60
2023-02-27T01:07:08.698Z,0.70
2023-02-27T01:09:36.137Z,0.77
2023-02-27T01:12:03.509Z,0.70
2023-02-27T01:14:31.136Z,0.50
2023-02-27T01:16:58.903Z,0.50
2023-02-27T01:19:27.663Z,0.68
2023-02-27T01:21:55.020Z,0.50
2023-02-27T01:24:22.405Z,0.60
2023-02-27T01:26:50.009Z,0.57
2023-02-27T01:29:17.342Z,0.52
2023-02-27T01:31:44.800Z,0.50
2023-02-27T01:34:12.300Z,0.50
2023-02-27T01:36:40.957Z,0.50
2023-02-27T01:39:08.442Z,0.60
2023-02-27T01:41:35.927Z,0.50
2023-02-27T01:44:04.531Z,0.68
2023-02-27T01:46:32.610Z,0.50
2023-02-27T01:49:01.439Z,1.42
2023-02-27T01:51:31.834Z,0.57
2023-02-27T01:54:00.846Z,0.80
2023-02-27T01:56:29.813Z,0.57
2023-02-27T01:58:58.820Z,0.80
2023-02-27T02:01:26.559Z,0.68
2023-02-27T02:03:57.825Z,0.70
2023-02-27T02:06:25.681Z,0.68
2023-02-27T02:08:54.414Z,0.77
2023-02-27T02:11:23.989Z,0.70
2023-02-27T02:13:54.374Z,0.60
2023-02-27T02:16:26.174Z,0.70
2023-02-27T02:18:58.555Z,0.73
2023-02-27T02:21:44.754Z,0.88
2023-02-27T02:24:21.721Z,0.70
2023-02-27T02:26:54.306Z,0.98
2023-02-27T02:29:40.338Z,1.00
2023-02-27T02:32:34.631Z,0.93
2023-02-27T02:35:19.710Z,1.25
2023-02-27T02:38:05.735Z,1.20
2023-02-27T02:40:38.819Z,1.10
2023-02-27T02:43:10.477Z,0.90
2023-02-27T02:45:41.458Z,1.20
2023-02-27T02:48:12.951Z,2.50
2023-02-27T02:50:43.618Z,2.10
2023-02-27T02:53:14.568Z,1.13
2023-02-27T02:55:45.214Z,0.90
2023-02-27T02:58:15.895Z,0.52
2023-02-27T03:00:46.115Z,0.43
2023-02-27T03:03:15.636Z,0.70
2023-02-27T03:05:47.042Z,0.70
2023-02-27T03:08:16.958Z,0.50
2023-02-27T03:10:47.530Z,0.50
2023-02-27T03:13:18.893Z,0.40
2023-02-27T03:15:48.423Z,0.40
2023-02-27T03:18:20.450Z,0.77
2023-02-27T03:20:49.632Z,0.40
2023-02-27T03:23:18.418Z,0.63
2023-02-27T03:25:47.244Z,0.75
2023-02-27T03:28:16.002Z,0.75
2023-02-27T03:30:46.090Z,0.88
2023-02-27T03:33:15.466Z,0.70
2023-02-27T03:35:45.815Z,0.52
2023-02-27T03:38:18.469Z,0.50
2023-02-27T03:40:50.625Z,0.68
2023-02-27T03:43:20.119Z,0.80
2023-02-27T03:45:54.024Z,1.15
2023-02-27T03:48:22.507Z,0.50
2023-02-27T03:50:50.014Z,0.50
2023-02-27T03:53:21.202Z,0.73
2023-02-27T03:55:51.028Z,0.70
2023-02-27T04:00:45.620Z,0.40
2023-02-27T04:03:12.957Z,0.68
2023-02-27T04:05:40.314Z,0.50
2023-02-27T04:08:15.023Z,0.50
2023-02-27T04:10:47.232Z,0.55
2023-02-27T04:13:23.470Z,0.40
2023-02-27T04:16:00.686Z,0.50
2023-02-27T04:18:36.003Z,0.60
2023-02-27T04:21:08.477Z,0.93
2023-02-27T04:23:38.895Z,0.70
2023-02-27T04:26:13.292Z,0.70
2023-02-27T04:28:44.190Z,0.63
2023-02-27T04:31:16.599Z,1.10
2023-02-27T04:33:46.007Z,0.70
2023-02-27T04:36:17.454Z,0.70
2023-02-27T04:38:47.413Z,0.93
2023-02-27T04:41:17.402Z,1.13
2023-02-27T04:43:46.520Z,1.20
2023-02-27T04:46:15.700Z,1.35
2023-02-27T04:48:45.842Z,1.67
2023-02-27T04:51:14.448Z,1.55
2023-02-27T04:53:46.409Z,1.05
2023-02-27T04:56:16.568Z,1.27
2023-02-27T04:58:46.121Z,1.10
2023-02-27T05:01:17.620Z,1.30
2023-02-27T05:03:47.150Z,1.38
2023-02-27T05:06:16.360Z,1.50
2023-02-27T05:08:45.309Z,0.95
2023-02-27T05:11:14.971Z,0.67
2023-02-27T05:13:44.545Z,0.90
2023-02-27T05:16:15.384Z,0.68
2023-02-27T05:18:44.322Z,0.70
2023-02-27T05:21:18.155Z,0.67
2023-02-27T05:23:49.376Z,1.50
2023-02-27T05:26:18.823Z,0.40
2023-02-27T05:28:50.219Z,0.70
2023-02-27T05:31:21.945Z,1.05
2023-02-27T05:33:55.770Z,0.95
2023-02-27T05:36:25.993Z,1.20
2023-02-27T05:38:56.373Z,1.10
2023-02-27T05:41:27.623Z,1.38
2023-02-27T05:43:58.653Z,1.10
2023-02-27T05:46:28.337Z,1.23
2023-02-27T05:48:57.787Z,1.40
2023-02-27T05:51:28.081Z,3.42
2023-02-27T05:53:58.541Z,3.60
2023-02-27T05:56:27.965Z,3.28
2023-02-27T05:58:57.016Z,1.80
2023-02-27T06:01:24.512Z,1.20
2023-02-27T06:03:51.976Z,0.75
2023-02-27T06:06:20.939Z,1.27
2023-02-27T06:08:48.299Z,1.30
2023-02-27T06:11:15.695Z,1.45
2023-02-27T06:13:43.030Z,1.30
2023-02-27T06:16:10.734Z,1.50
2023-02-27T06:18:38.100Z,2.22
2023-02-27T06:21:05.665Z,2.08
2023-02-27T06:23:34.319Z,4.55
2023-02-27T06:26:01.686Z,4.50
2023-02-27T06:28:29.014Z,2.58
2023-02-27T06:30:57.251Z,2.40
2023-02-27T06:33:24.790Z,2.83
2023-02-27T06:35:52.483Z,4.10
2023-02-27T06:38:19.846Z,2.75
2023-02-27T06:40:48.537Z,2.47
2023-02-27T06:43:15.947Z,1.42
2023-02-27T06:45:43.307Z,1.10
2023-02-27T06:48:12.541Z,1.38
2023-02-27T06:50:39.947Z,1.20
2023-02-27T06:53:07.775Z,1.50
2023-02-27T06:55:35.249Z,2.00
2023-02-27T06:58:04.009Z,1.40
2023-02-27T07:00:31.397Z,1.88
2023-02-27T07:02:58.701Z,1.98
2023-02-27T07:05:26.194Z,1.52
2023-02-27T07:07:53.537Z,1.13
2023-02-27T07:10:21.053Z,1.30
2023-02-27T07:12:48.683Z,1.23
2023-02-27T07:15:17.472Z,1.45
2023-02-27T07:17:45.024Z,1.27
2023-02-27T07:20:12.962Z,1.20
2023-02-27T07:22:40.930Z,1.17
2023-02-27T07:25:09.134Z,1.55
2023-02-27T07:27:36.530Z,1.75
2023-02-27T07:30:03.988Z,1.67
2023-02-27T07:32:32.637Z,1.55
2023-02-27T07:34:59.973Z,1.60
2023-02-27T07:37:28.244Z,2.00
2023-02-27T07:39:56.064Z,1.73
2023-02-27T07:42:23.467Z,1.85
2023-02-27T07:44:50.789Z,2.08
2023-02-27T07:47:18.592Z,2.00
2023-02-27T07:49:47.234Z,1.88
2023-02-27T07:52:14.589Z,2.03
2023-02-27T07:54:41.968Z,1.95
2023-02-27T07:57:09.332Z,2.13
2023-02-27T07:59:36.798Z,2.00
2023-02-27T08:02:04.268Z,1.90
2023-02-27T08:04:31.733Z,2.00
2023-02-27T08:07:00.650Z,2.22
2023-02-27T08:09:28.043Z,1.80
2023-02-27T08:11:55.378Z,2.25
2023-02-27T08:14:23.027Z,1.95
2023-02-27T08:16:50.423Z,2.20
2023-02-27T08:19:17.739Z,2.13
2023-02-27T08:21:45.066Z,1.80
2023-02-27T08:24:13.707Z,1.92
2023-02-27T08:26:41.112Z,2.13
2023-02-27T08:29:08.674Z,1.90
2023-02-27T08:31:36.306Z,1.55
2023-02-27T08:34:10.262Z,1.90
2023-02-27T08:36:38.752Z,1.63
2023-02-27T08:39:06.440Z,1.70
2023-02-27T08:41:35.496Z,2.03
2023-02-27T08:44:03.018Z,1.95
2023-02-27T08:46:30.575Z,2.00
2023-02-27T08:48:58.026Z,1.83
2023-02-27T08:51:25.500Z,1.23
2023-02-27T08:53:55.042Z,1.58
2023-02-27T08:56:22.538Z,2.10
2023-02-27T08:58:51.211Z,2.53
2023-02-27T09:01:18.595Z,2.40
2023-02-27T09:03:45.986Z,2.60
2023-02-27T09:06:13.405Z,2.28
2023-02-27T09:08:40.784Z,1.80
2023-02-27T09:11:08.200Z,2.25
2023-02-27T09:13:35.591Z,2.08
2023-02-27T09:16:04.453Z,2.33
2023-02-27T09:18:31.859Z,3.00
2023-02-27T09:20:59.200Z,3.28
2023-02-27T09:23:26.526Z,2.28
2023-02-27T09:25:53.945Z,2.70
2023-02-27T09:28:21.717Z,2.97
2023-02-27T09:30:49.111Z,2.30
2023-02-27T09:33:17.856Z,2.90
2023-02-27T09:35:45.348Z,2.58
2023-02-27T09:38:13.755Z,2.40
2023-02-27T09:40:42.079Z,2.80
2023-02-27T09:43:14.092Z,2.10
2023-02-27T09:45:41.614Z,2.00
2023-02-27T09:48:13.375Z,1.90
2023-02-27T09:50:43.391Z,2.42
2023-02-27T09:53:13.235Z,2.65
2023-02-27T09:58:13.588Z,2.20
2023-02-27T10:00:46.248Z,1.70
2023-02-27T10:03:19.630Z,1.80
2023-02-27T10:05:51.901Z,1.85
2023-02-27T10:08:23.913Z,1.80
2023-02-27T10:10:55.070Z,1.98
2023-02-27T10:13:31.251Z,2.40
2023-02-27T10:18:47.612Z,1.08
2023-02-27T10:24:00.129Z,1.33
2023-02-27T10:29:15.646Z,0.98
2023-02-27T10:37:06.955Z,1.05
2023-02-27T10:39:45.063Z,0.80
2023-02-27T10:42:13.473Z,1.63
2023-02-27T10:44:40.842Z,1.10
2023-02-27T10:47:08.199Z,1.10
2023-02-27T10:49:36.766Z,0.95
2023-02-27T10:52:05.775Z,1.48
2023-02-27T10:54:33.157Z,1.30
2023-02-27T10:57:02.694Z,1.10
2023-02-27T11:13:29.110Z,1.08
2023-02-27T11:16:07.488Z,0.63
2023-02-27T11:18:36.960Z,1.30
2023-02-27T11:21:18.224Z,0.98
2023-02-27T11:23:53.389Z,1.10
2023-02-27T11:26:23.389Z,1.10
2023-02-27T11:29:04.893Z,0.93
2023-02-27T11:31:33.066Z,1.50
2023-02-27T11:34:01.999Z,1.45
2023-02-27T11:36:41.048Z,0.90
2023-02-27T11:39:08.510Z,0.80
2023-02-27T11:41:36.017Z,1.20
2023-02-27T11:44:05.513Z,1.08
2023-02-27T11:46:47.894Z,1.00
2023-02-27T11:49:26.478Z,1.10
2023-02-27T11:51:59.305Z,1.20
2023-02-27T11:54:34.799Z,0.85
2023-02-27T11:57:04.580Z,1.27
2023-02-27T11:59:39.690Z,1.17
2023-02-27T12:02:12.513Z,1.10
2023-02-27T12:04:44.730Z,0.98
2023-02-27T12:07:16.535Z,1.33
2023-02-27T12:09:46.780Z,1.42
2023-02-27T12:12:19.992Z,1.15
2023-02-27T12:14:50.905Z,1.20
2023-02-27T12:17:21.349Z,1.20
2023-02-27T12:19:56.459Z,1.25
2023-02-27T12:22:27.446Z,1.10
2023-02-27T12:24:57.525Z,1.13
2023-02-27T12:27:26.611Z,1.77
2023-02-27T12:29:55.759Z,0.80
2023-02-27T12:32:25.038Z,1.35
2023-02-27T12:34:55.560Z,1.10
2023-02-27T12:37:25.282Z,1.00
2023-02-27T12:39:53.990Z,1.08
2023-02-27T12:42:27.412Z,1.27
2023-02-27T12:45:09.698Z,1.20
2023-02-27T12:47:40.466Z,1.40
2023-02-27T12:50:12.169Z,1.10
2023-02-27T12:52:45.904Z,1.27
2023-02-27T12:55:14.889Z,0.93
2023-02-27T12:57:50.244Z,2.27
2023-02-27T13:00:19.289Z,1.42
2023-02-27T13:02:59.046Z,1.33
2023-02-27T13:05:35.378Z,1.40
2023-02-27T13:08:07.671Z,1.42
2023-02-27T13:10:37.100Z,1.17
2023-02-27T13:13:09.623Z,1.13
2023-02-27T13:15:41.754Z,1.27
2023-02-27T13:18:10.276Z,1.25
2023-02-27T13:20:41.350Z,1.30
2023-02-27T13:23:17.178Z,2.45
2023-02-27T13:25:45.666Z,2.72
2023-02-27T13:28:15.122Z,2.20
2023-02-27T13:30:43.968Z,1.90
2023-02-27T13:33:19.589Z,1.70
2023-02-27T13:35:51.198Z,1.63
2023-02-27T13:38:32.631Z,2.80
2023-02-27T13:41:14.920Z,1.73
2023-02-27T13:43:51.709Z,1.83
2023-02-27T13:46:22.995Z,1.50
2023-02-27T13:48:52.180Z,1.55
2023-02-27T13:51:38.395Z,1.30
2023-02-27T13:54:16.528Z,1.80
2023-02-27T13:56:45.726Z,1.33
2023-02-27T13:59:13.830Z,1.52
2023-02-27T14:01:41.438Z,1.50
2023-02-27T14:04:08.945Z,1.77
2023-02-27T14:06:43.609Z,1.40
2023-02-27T14:09:15.501Z,1.55
2023-02-27T14:11:52.038Z,1.05
2023-02-27T14:14:50.326Z,1.30
2023-02-27T14:17:41.194Z,1.20
2023-02-27T14:20:12.969Z,1.20
2023-02-27T14:23:04.431Z,1.50
2023-02-27T14:25:34.458Z,0.90
2023-02-27T14:28:03.263Z,1.30
2023-02-27T14:30:34.874Z,0.90
2023-02-27T14:33:08.096Z,1.13
2023-02-27T14:35:36.858Z,1.33
2023-02-27T14:38:08.994Z,1.00
2023-02-27T14:40:39.872Z,1.60
2023-02-27T14:43:11.717Z,0.90
2023-02-27T14:45:39.035Z,1.50
2023-02-27T14:48:09.168Z,1.50
2023-02-27T14:50:37.684Z,0.90
2023-02-27T14:53:05.485Z,1.17
2023-02-27T14:55:33.915Z,1.02
2023-02-27T14:58:09.438Z,0.93
2023-02-27T15:00:37.996Z,0.93
2023-02-27T15:03:16.467Z,1.25
2023-02-27T15:05:43.959Z,1.27
2023-02-27T15:08:15.115Z,1.00
2023-02-27T15:10:43.155Z,1.45
2023-02-27T15:13:20.775Z,1.20
2023-02-27T15:15:48.769Z,1.33
2023-02-27T15:18:16.189Z,1.50
2023-02-27T15:20:43.550Z,1.20
2023-02-27T15:23:24.573Z,1.40
2023-02-27T15:25:55.438Z,1.40
2023-02-27T15:28:25.036Z,1.30
2023-02-27T15:30:54.131Z,1.30
2023-02-27T15:33:28.297Z,1.55
2023-02-27T15:35:55.973Z,1.00
2023-02-27T15:38:24.866Z,1.40
2023-02-27T15:40:52.312Z,1.00
2023-02-27T15:43:21.530Z,1.13
2023-02-27T15:45:50.905Z,1.38
2023-02-27T15:48:20.930Z,1.40
2023-02-27T15:50:53.881Z,1.13
2023-02-27T15:53:22.440Z,1.40
2023-02-27T15:55:51.233Z,1.63
2023-02-27T15:58:24.342Z,1.52
2023-02-27T16:01:00.453Z,2.15
2023-02-27T16:03:30.870Z,1.83
2023-02-27T16:05:59.997Z,1.88
2023-02-27T16:08:28.464Z,1.30
2023-02-27T16:10:55.934Z,1.30
2023-02-27T16:13:30.478Z,1.40
2023-02-27T16:16:03.307Z,1.58
2023-02-27T16:18:34.532Z,1.77
2023-02-27T16:21:12.212Z,2.08
2023-02-27T16:23:39.572Z,1.73
2023-02-27T16:26:13.954Z,1.50
2023-02-27T16:28:43.413Z,1.35
2023-02-27T16:31:18.699Z,1.50
2023-02-27T16:33:46.151Z,1.90
2023-02-27T16:36:18.974Z,1.10
2023-02-27T16:38:46.509Z,1.17
2023-02-27T16:41:16.408Z,1.00
2023-02-27T16:43:44.919Z,1.35
2023-02-27T16:46:15.645Z,1.10
2023-02-27T16:48:44.368Z,1.50
2023-02-27T16:51:15.472Z,0.90
2023-02-27T16:53:42.823Z,0.85
2023-02-27T16:56:10.607Z,1.05
2023-02-27T16:58:37.971Z,1.50
2023-02-27T17:01:05.576Z,1.00
2023-02-27T17:03:33.268Z,0.70
2023-02-27T17:06:03.429Z,1.02
2023-02-27T17:08:31.199Z,0.77
2023-02-27T17:10:59.040Z,0.70
2023-02-27T17:13:26.670Z,0.77
2023-02-27T17:15:54.238Z,0.80
2023-02-27T17:18:22.637Z,0.63
2023-02-27T17:20:51.088Z,0.73
2023-02-27T17:23:20.196Z,1.20
2023-02-27T17:25:47.565Z,0.70
2023-02-27T17:28:15.101Z,0.60
2023-02-27T17:30:42.667Z,0.63
2023-02-27T17:33:10.056Z,0.90
2023-02-27T17:35:37.443Z,0.77
2023-02-27T17:38:07.386Z,0.77
2023-02-27T17:40:39.240Z,1.00
2023-02-27T17:43:06.852Z,1.25
2023-02-27T17:45:34.189Z,0.73
2023-02-27T17:48:01.540Z,1.38
2023-02-27T17:50:28.869Z,1.67
2023-02-27T17:52:56.202Z,1.95
2023-02-27T17:55:23.554Z,1.77
2023-02-27T17:57:52.263Z,1.33
2023-02-27T18:00:20.217Z,1.50
2023-02-27T18:02:48.050Z,1.25
2023-02-27T18:05:15.432Z,1.33
2023-02-27T18:07:42.790Z,1.17
2023-02-27T18:10:10.891Z,1.00
2023-02-27T18:12:39.376Z,1.30
2023-02-27T18:15:09.095Z,2.50
2023-02-27T18:17:36.488Z,2.92
2023-02-27T18:20:05.668Z,2.45
2023-02-27T18:22:33.837Z,1.90
2023-02-27T18:25:01.218Z,1.40
2023-02-27T18:27:28.792Z,1.30
2023-02-27T18:29:57.604Z,1.35
2023-02-27T18:32:32.566Z,1.70
2023-02-27T18:35:01.987Z,2.00
2023-02-27T18:37:30.474Z,2.35
2023-02-27T18:39:57.852Z,2.10
2023-02-27T18:42:25.210Z,2.28
2023-02-27T18:44:52.632Z,2.10
2023-02-27T18:47:19.959Z,1.95
2023-02-27T18:49:48.623Z,1.65
2023-02-27T18:52:17.010Z,1.75
2023-02-27T18:54:44.377Z,2.00
2023-02-27T18:57:11.780Z,1.60
2023-02-27T18:59:41.183Z,1.48
2023-02-27T19:02:13.183Z,1.67
2023-02-27T19:04:40.566Z,2.50
2023-02-27T19:07:09.361Z,2.05
2023-02-27T19:09:38.858Z,2.28
2023-02-27T19:12:06.353Z,2.42
2023-02-27T19:14:33.670Z,1.98
2023-02-27T19:17:02.743Z,1.52
2023-02-27T19:19:30.102Z,1.98
2023-02-27T19:21:59.184Z,3.30
2023-02-27T19:24:27.865Z,3.40
2023-02-27T19:26:55.196Z,3.85
2023-02-27T19:29:22.550Z,3.08
2023-02-27T19:31:50.113Z,2.80
2023-02-27T19:34:17.512Z,2.90
2023-02-27T19:36:44.902Z,2.97
2023-02-27T19:39:12.428Z,2.28
2023-02-27T19:41:41.233Z,2.90
2023-02-27T19:44:09.162Z,3.28
2023-02-27T19:46:36.844Z,3.58
2023-02-27T19:49:05.465Z,3.97
2023-02-27T19:51:32.795Z,3.50
2023-02-27T19:54:00.572Z,3.25
2023-02-27T19:56:31.373Z,3.10
2023-02-27T19:59:00.566Z,2.60
2023-02-27T20:01:31.422Z,2.00
2023-02-27T20:03:59.219Z,1.60
2023-02-27T20:06:27.947Z,1.98
2023-02-27T20:08:56.063Z,1.67
2023-02-27T20:11:23.374Z,1.80
2023-02-27T20:13:51.496Z,2.03
2023-02-27T20:16:22.356Z,1.70
2023-02-27T20:18:50.058Z,1.90
2023-02-27T20:21:18.695Z,2.75
2023-02-27T20:23:46.445Z,3.00
2023-02-27T20:26:14.688Z,3.30
2023-02-27T20:28:42.019Z,1.70
2023-02-27T20:31:10.093Z,2.85
2023-02-27T20:33:38.912Z,3.83
2023-02-27T20:36:06.910Z,1.75
2023-02-27T20:38:39.092Z,0.90
2023-02-27T20:41:06.572Z,0.93
2023-02-27T20:43:34.122Z,0.77
2023-02-27T20:46:03.490Z,1.15
2023-02-27T20:48:30.878Z,1.00
2023-02-27T20:51:04.541Z,1.05
2023-02-27T20:53:31.914Z,1.15
2023-02-27T20:55:59.285Z,1.25
2023-02-27T20:58:26.623Z,1.67
2023-02-27T21:00:53.953Z,1.60
2023-02-27T21:03:21.360Z,1.50
2023-02-27T21:05:49.230Z,3.58
2023-02-27T21:08:17.960Z,3.60
2023-02-27T21:10:46.521Z,2.65
2023-02-27T21:13:13.845Z,1.42
2023-02-27T21:15:41.188Z,1.20
2023-02-27T21:18:09.193Z,1.70
2023-02-27T21:20:36.505Z,2.03
2023-02-27T21:23:03.896Z,1.77
2023-02-27T21:25:33.629Z,1.75
2023-02-27T21:28:02.278Z,1.75
2023-02-27T21:30:30.039Z,1.80
2023-02-27T21:32:57.512Z,1.75
2023-02-27T21:35:25.167Z,1.73
2023-02-27T21:37:53.767Z,1.30
2023-02-27T21:40:21.502Z,1.50
2023-02-27T21:42:50.765Z,1.13
2023-02-27T21:45:18.094Z,1.65
2023-02-27T21:47:45.473Z,1.60
2023-02-27T21:50:14.707Z,1.30
2023-02-27T21:52:42.213Z,1.42
2023-02-27T21:55:10.464Z,1.40
2023-02-27T21:57:38.133Z,1.13
2023-02-27T22:00:09.381Z,1.20
2023-02-27T22:02:36.780Z,1.42
2023-02-27T22:05:04.126Z,1.10
2023-02-27T22:07:31.450Z,1.30
2023-02-27T22:09:58.900Z,1.08
2023-02-27T22:12:26.988Z,1.30
2023-02-27T22:14:54.455Z,1.00
2023-02-27T22:17:23.169Z,1.00
2023-02-27T22:19:50.509Z,1.23
2023-02-27T22:22:17.897Z,1.70
2023-02-27T22:24:45.264Z,1.10
2023-02-27T22:27:12.618Z,1.77
2023-02-27T22:29:42.209Z,1.38
2023-02-27T22:32:10.229Z,1.35
2023-02-27T22:34:38.895Z,1.55
2023-02-27T22:37:06.235Z,2.13
2023-02-27T22:39:33.575Z,2.03
2023-02-27T22:42:00.980Z,3.45
2023-02-27T22:44:28.405Z,3.75
2023-02-27T22:46:56.573Z,4.13
2023-02-27T22:49:24.609Z,3.00
2023-02-27T22:51:53.474Z,2.50
2023-02-27T22:54:21.216Z,2.03
2023-02-27T22:56:50.072Z,1.90
2023-02-27T22:59:17.436Z,1.98
2023-02-27T23:01:44.821Z,2.03
2023-02-27T23:04:12.479Z,1.63
2023-02-27T23:06:40.686Z,2.03
2023-02-27T23:09:10.471Z,2.00
2023-02-27T23:11:37.789Z,1.88
2023-02-27T23:14:05.119Z,2.70
2023-02-27T23:16:32.692Z,2.60
2023-02-27T23:19:00.446Z,2.88
2023-02-27T23:21:29.775Z,3.17
2023-02-27T23:23:57.580Z,3.60
2023-02-27T23:26:28.298Z,3.63
2023-02-27T23:28:55.838Z,3.20
2023-02-27T23:31:23.307Z,2.63
2023-02-27T23:33:50.967Z,1.83
2023-02-27T23:36:18.309Z,1.90
2023-02-27T23:38:46.675Z,1.60
2023-02-27T23:41:17.426Z,1.83
2023-02-27T23:44:03.953Z,2.00
2023-02-27T23:46:31.593Z,1.60
2023-02-27T23:48:59.100Z,1.50
2023-02-27T23:51:29.685Z,1.23
2023-02-27T23:53:57.698Z,1.30
2023-02-27T23:56:26.792Z,2.30
2023-02-27T23:58:56.831Z,2.17
